Time;durP1;ratioP1;P1;durP2;ratioP2;P2;SDS_P1;SDS_P2;PMS_P1;PMS_P2;Temp;Humidity;BMP_temperature;BMP_pressure;BME280_temperature;BME280_humidity;BME280_pressure;Samples;Min_cycle;Max_cycle;Signal;HPM_P1;HPM_P2
2022/01/14 00:01:45;;;;;;;32.85;19.90;;;;;;;3.49;100.00;100872.25;5018993;28;20654;-80
2022/01/14 00:04:10;;;;;;;26.92;17.63;;;;;;;3.54;100.00;100870.56;5018698;28;20099;-80
2022/01/14 00:06:37;;;;;;;28.10;19.17;;;;;;;3.54;100.00;100868.00;5018383;28;20034;-79
2022/01/14 00:09:06;;;;;;;29.88;18.67;;;;;;;3.45;100.00;100866.22;5000805;28;20132;-79
2022/01/14 00:11:37;;;;;;;31.33;18.40;;;;;;;3.50;100.00;100877.44;5018218;28;20088;-79
2022/01/14 00:16:33;;;;;;;38.88;19.73;;;;;;;3.52;100.00;100898.03;5018464;28;20087;-80
2022/01/14 00:18:58;;;;;;;30.40;18.23;;;;;;;3.48;100.00;100881.69;5000939;28;20393;-80
2022/01/14 00:21:25;;;;;;;43.22;20.60;;;;;;;3.36;100.00;100861.06;5000855;28;20026;-79
2022/01/14 00:23:53;;;;;;;27.23;17.38;;;;;;;3.46;100.00;100875.72;5018405;28;20038;-79
2022/01/14 00:34:14;;;;;;;28.20;17.95;;;;;;;3.47;100.00;100867.13;5018311;28;20029;-79
2022/01/14 00:36:40;;;;;;;26.92;16.90;;;;;;;3.47;100.00;100861.97;5000437;28;20033;-80
2022/01/14 00:39:08;;;;;;;27.45;17.30;;;;;;;3.37;100.00;100849.94;5018143;28;20038;-80
2022/01/14 00:41:35;;;;;;;28.35;17.55;;;;;;;3.48;100.00;100875.69;5000530;28;20064;-79
2022/01/14 00:44:03;;;;;;;28.58;17.73;;;;;;;3.45;100.00;100870.53;5018370;28;20030;-80
2022/01/14 00:46:28;;;;;;;30.45;17.15;;;;;;;3.47;100.00;100873.97;5018029;28;20030;-79
2022/01/14 00:48:56;;;;;;;24.83;16.02;;;;;;;3.46;100.00;100861.97;5019292;28;20179;-80
2022/01/14 00:51:21;;;;;;;26.42;17.02;;;;;;;3.43;100.00;100869.69;5038012;28;20017;-80
2022/01/14 00:53:47;;;;;;;24.33;16.33;;;;;;;3.47;100.00;100869.69;5036588;28;20241;-80
2022/01/14 01:01:34;;;;;;;27.30;17.13;;;;;;;3.47;100.00;100876.56;5035825;28;20080;-79
2022/01/14 01:03:59;;;;;;;29.10;16.75;;;;;;;3.45;100.00;100873.97;5033300;28;20462;-79
2022/01/14 01:06:25;;;;;;;27.88;17.23;;;;;;;3.43;100.00;100874.84;5033493;28;20025;-79
2022/01/14 01:08:52;;;;;;;26.60;18.35;;;;;;;3.41;100.00;100880.00;5033254;28;20029;-79
2022/01/14 01:11:24;;;;;;;22.67;15.73;;;;;;;3.24;100.00;100850.75;5034726;28;20099;-80
2022/01/14 01:13:59;;;;;;;23.63;16.25;;;;;;;3.39;100.00;100884.25;5033108;28;20048;-79
2022/01/14 01:16:25;;;;;;;28.30;18.90;;;;;;;3.39;100.00;100885.97;5033176;28;20026;-80
2022/01/14 01:18:50;;;;;;;23.08;16.95;;;;;;;3.35;100.00;100891.97;5032911;28;20036;-80
2022/01/14 01:21:15;;;;;;;26.10;17.38;;;;;;;3.33;100.00;100893.69;5034538;28;20029;-80
2022/01/14 01:23:41;;;;;;;30.08;17.33;;;;;;;3.30;100.00;100888.53;5034271;28;20393;-79
2022/01/14 01:26:15;;;;;;;28.13;17.95;;;;;;;3.20;100.00;100873.06;5034712;28;20079;-79
2022/01/14 01:29:00;;;;;;;26.20;17.25;;;;;;;3.22;100.00;100870.50;5033888;28;20485;-79
2022/01/14 01:31:38;;;;;;;27.45;18.25;;;;;;;3.19;100.00;100870.47;5034198;28;20488;-79
2022/01/14 01:34:10;;;;;;;32.95;19.63;;;;;;;3.27;100.00;100873.94;5033034;28;20037;-79
2022/01/14 01:36:37;;;;;;;29.98;18.45;;;;;;;3.26;100.00;100867.06;5034206;28;20022;-79
2022/01/14 01:39:05;;;;;;;31.17;18.58;;;;;;;3.13;100.00;100858.44;5034119;28;20116;-79
2022/01/14 01:41:31;;;;;;;28.10;17.83;;;;;;;3.23;100.00;100865.34;5033686;28;20033;-79
2022/01/14 01:43:58;;;;;;;29.60;17.73;;;;;;;3.21;100.00;100861.91;5034142;28;20037;-80
2022/01/14 01:46:24;;;;;;;29.50;18.10;;;;;;;3.18;100.00;100855.88;5034031;28;20029;-80
2022/01/14 01:48:53;;;;;;;29.80;18.80;;;;;;;3.24;100.00;100861.94;5023389;28;20034;-79
2022/01/14 01:51:20;;;;;;;26.40;18.27;;;;;;;3.25;100.00;100873.09;5014144;28;20022;-79
2022/01/14 01:53:46;;;;;;;31.45;19.55;;;;;;;3.11;100.00;100846.41;5013831;28;20034;-79
2022/01/14 01:56:12;;;;;;;30.85;18.30;;;;;;;3.20;100.00;100879.91;5013847;28;20036;-79
2022/01/14 01:58:38;;;;;;;28.48;18.10;;;;;;;3.29;100.00;100885.09;4996125;28;20042;-79
2022/01/14 02:01:04;;;;;;;35.75;19.67;;;;;;;3.28;100.00;100879.94;4996343;28;20100;-79
2022/01/14 02:03:31;;;;;;;29.15;18.40;;;;;;;3.25;100.00;100867.94;4996049;28;20034;-79
2022/01/14 02:05:57;;;;;;;30.70;18.67;;;;;;;3.20;100.00;100861.88;4996231;28;20022;-79
2022/01/14 02:08:22;;;;;;;30.25;18.35;;;;;;;3.24;100.00;100866.19;5013701;28;20036;-79
2022/01/14 02:10:47;;;;;;;28.40;17.52;;;;;;;3.22;100.00;100866.19;5013415;28;20018;-79
2022/01/14 02:13:13;;;;;;;31.65;19.20;;;;;;;3.19;100.00;100844.72;5012728;28;20032;-79
2022/01/14 02:23:30;;;;;;;31.00;19.13;;;;;;;3.24;100.00;100848.16;4953071;29;20448;-79
2022/01/14 02:25:56;;;;;;;34.38;19.75;;;;;;;3.25;100.00;100842.19;4952982;29;20061;-79
2022/01/14 02:28:21;;;;;;;33.00;18.98;;;;;;;3.16;100.00;100843.03;4952801;29;20482;-80
2022/01/14 02:30:49;;;;;;;31.15;17.98;;;;;;;3.23;100.00;100841.31;4952501;29;20031;-79
2022/01/14 02:33:16;;;;;;;28.27;17.88;;;;;;;3.21;100.00;100835.31;4952765;29;20386;-79
2022/01/14 02:35:45;;;;;;;35.83;19.95;;;;;;;3.25;100.00;100848.19;4932786;29;20086;-79
2022/01/14 02:38:12;;;;;;;31.02;18.42;;;;;;;3.15;100.00;100824.97;4933329;29;20074;-79
2022/01/14 02:40:39;;;;;;;31.42;17.80;;;;;;;3.24;100.00;100845.59;4894849;29;20496;-79
2022/01/14 02:43:11;;;;;;;31.20;18.38;;;;;;;3.25;100.00;100847.34;4895337;29;20048;-79
2022/01/14 02:45:37;;;;;;;30.63;17.67;;;;;;;3.24;100.00;100833.59;4895030;29;20509;-79
2022/01/14 02:48:03;;;;;;;30.13;17.63;;;;;;;3.25;100.00;100835.31;4898942;29;20135;-79
2022/01/14 02:50:42;;;;;;;30.00;17.58;;;;;;;3.24;100.00;100825.88;4913924;29;20043;-79
2022/01/14 02:56:02;;;;;;;36.33;18.55;;;;;;;3.21;100.00;100812.13;4895088;29;20028;-79
2022/01/14 02:58:30;;;;;;;30.73;18.08;;;;;;;3.23;100.00;100800.09;4895050;29;20045;-79
2022/01/14 03:01:00;;;;;;;25.42;17.15;;;;;;;3.26;100.00;100813.00;4882259;29;20060;-79
2022/01/14 03:03:29;;;;;;;28.73;18.35;;;;;;;3.30;100.00;100819.88;4876349;29;20097;-79
2022/01/14 03:05:54;;;;;;;30.65;18.05;;;;;;;3.24;100.00;100799.25;4866964;29;20044;-79
2022/01/14 03:08:21;;;;;;;27.23;17.98;;;;;;;3.30;100.00;100814.72;4897920;29;20477;-79
2022/01/14 03:10:53;;;;;;;27.75;17.48;;;;;;;3.31;100.00;100825.88;4900570;29;20531;-79
2022/01/14 03:13:19;;;;;;;28.75;16.52;;;;;;;3.22;100.00;100804.41;4916658;29;20449;-79
2022/01/14 03:15:45;;;;;;;24.40;16.77;;;;;;;3.30;100.00;100819.03;4932518;29;20066;-79
2022/01/14 03:18:10;;;;;;;29.80;18.27;;;;;;;3.36;100.00;100824.16;4932634;29;20039;-79
2022/01/14 03:20:52;;;;;;;27.90;17.63;;;;;;;3.31;100.00;100819.00;4932397;29;20043;-79
2022/01/14 03:23:18;;;;;;;29.08;18.45;;;;;;;3.34;100.00;100813.88;4916650;29;20028;-79
2022/01/14 03:25:48;;;;;;;24.95;16.25;;;;;;;3.22;100.00;100793.25;4915912;29;20039;-79
2022/01/14 03:28:19;;;;;;;27.42;17.52;;;;;;;3.34;100.00;100806.16;4916431;29;20078;-80
2022/01/14 03:30:45;;;;;;;31.88;18.77;;;;;;;3.32;100.00;100794.13;4932237;29;20028;-79
2022/01/14 03:33:10;;;;;;;33.42;17.45;;;;;;;3.34;100.00;100800.16;4984499;28;20402;-80
2022/01/14 03:35:36;;;;;;;28.40;17.42;;;;;;;3.24;100.00;100795.00;4994302;28;20053;-80
2022/01/14 03:38:02;;;;;;;29.55;18.77;;;;;;;3.23;100.00;100785.50;4994457;28;20481;-80
2022/01/14 03:40:27;;;;;;;28.17;18.88;;;;;;;3.32;100.00;100799.25;5012031;28;20067;-80
2022/01/14 03:42:52;;;;;;;33.05;21.25;;;;;;;3.21;100.00;100776.09;5010756;28;20041;-79
2022/01/14 03:45:18;;;;;;;29.75;18.67;;;;;;;3.30;100.00;100776.09;5011988;28;20172;-79
2022/01/14 03:47:43;;;;;;;29.40;18.58;;;;;;;3.28;100.00;100774.38;5010389;28;20486;-80
2022/01/14 03:50:09;;;;;;;27.75;19.50;;;;;;;3.29;100.00;100776.06;4994764;28;20172;-80
2022/01/14 03:52:35;;;;;;;35.75;19.63;;;;;;;3.21;100.00;100750.34;5011786;28;20462;-79
2022/01/14 03:55:00;;;;;;;31.20;19.05;;;;;;;3.27;100.00;100758.06;5011973;28;20037;-80
2022/01/14 03:57:25;;;;;;;30.92;19.27;;;;;;;3.23;100.00;100754.63;4994587;28;20524;-80
2022/01/14 03:59:51;;;;;;;32.83;20.33;;;;;;;3.09;100.00;100722.88;4994238;28;20032;-80
2022/01/14 04:02:16;;;;;;;30.92;20.92;;;;;;;3.27;100.00;100755.50;5012049;28;20030;-80
2022/01/14 04:04:41;;;;;;;36.05;21.20;;;;;;;3.16;100.00;100732.31;5011684;28;20385;-79
2022/01/14 04:07:07;;;;;;;34.60;20.25;;;;;;;3.22;100.00;100745.19;5011898;28;20030;-80
2022/01/14 04:09:36;;;;;;;37.53;21.38;;;;;;;3.20;100.00;100731.47;5011817;28;20560;-80
2022/01/14 04:12:03;;;;;;;37.60;22.00;;;;;;;3.21;100.00;100735.75;4994480;28;20037;-79
2022/01/14 04:16:56;;;;;;;35.33;21.85;;;;;;;3.19;100.00;100736.59;5011625;28;20108;-80
2022/01/14 04:19:24;;;;;;;36.38;22.60;;;;;;;3.17;100.00;100735.75;5011913;28;20130;-79
2022/01/14 04:21:49;;;;;;;36.17;21.55;;;;;;;3.15;100.00;100722.00;5011777;28;20030;-79
2022/01/14 04:24:14;;;;;;;39.75;23.08;;;;;;;3.17;100.00;100705.72;4994420;28;20033;-80
2022/01/14 04:26:40;;;;;;;37.33;22.45;;;;;;;3.11;100.00;100694.56;5011647;28;20456;-79
2022/01/14 04:29:05;;;;;;;39.22;22.85;;;;;;;3.14;100.00;100704.84;4993839;28;20037;-79
2022/01/14 04:31:30;;;;;;;39.67;23.23;;;;;;;3.16;100.00;100706.59;5011679;28;20032;-79
2022/01/14 04:33:56;;;;;;;38.75;23.80;;;;;;;3.18;100.00;100689.41;5011501;28;20441;-79
2022/01/14 04:36:21;;;;;;;35.33;21.88;;;;;;;3.06;100.00;100666.22;4994152;28;20032;-80
2022/01/14 04:38:46;;;;;;;39.70;23.20;;;;;;;3.07;100.00;100669.66;4997635;28;20041;-80
2022/01/14 04:41:12;;;;;;;36.17;23.13;;;;;;;3.14;100.00;100673.97;5015476;28;20504;-80
2022/01/14 04:43:38;;;;;;;41.05;23.88;;;;;;;3.03;100.00;100671.38;5015116;28;20030;-80
2022/01/14 04:48:34;;;;;;;37.10;21.98;;;;;;;3.08;100.00;100674.84;5014975;28;20104;-80
2022/01/14 04:51:01;;;;;;;35.70;21.58;;;;;;;3.01;100.00;100670.53;4997219;28;20022;-79
2022/01/14 04:53:28;;;;;;;42.28;23.08;;;;;;;3.10;100.00;100683.41;5015130;28;20029;-79
2022/01/14 04:55:55;;;;;;;39.50;21.35;;;;;;;2.99;100.00;100673.13;5014916;28;20171;-80
2022/01/14 04:58:21;;;;;;;37.30;22.65;;;;;;;3.09;100.00;100688.56;4997443;28;20223;-80
2022/01/14 05:00:47;;;;;;;36.83;22.50;;;;;;;3.05;100.00;100699.72;4997313;28;20411;-79
2022/01/14 05:03:12;;;;;;;37.60;22.65;;;;;;;3.04;100.00;100703.16;4997448;28;20033;-79
2022/01/14 05:05:41;;;;;;;40.13;23.27;;;;;;;2.99;100.00;100697.97;5014612;28;20030;-79
2022/01/14 05:08:11;;;;;;;42.70;24.52;;;;;;;2.96;100.00;100698.84;5014957;28;20034;-79
2022/01/14 05:10:49;;;;;;;36.78;22.15;;;;;;;3.03;100.00;100703.97;5014867;28;20495;-79
2022/01/14 05:13:15;;;;;;;41.90;24.08;;;;;;;3.00;100.00;100710.00;5014856;28;20028;-79
2022/01/14 05:15:40;;;;;;;38.03;23.17;;;;;;;3.05;100.00;100722.88;5014516;28;20402;-79
2022/01/14 05:18:06;;;;;;;46.42;26.65;;;;;;;2.94;100.00;100705.69;5014631;28;20037;-79
2022/01/14 05:20:31;;;;;;;39.40;24.00;;;;;;;2.98;100.00;100717.69;4996852;28;20026;-79
2022/01/14 05:22:58;;;;;;;37.55;22.42;;;;;;;2.99;100.00;100719.44;5014685;28;20121;-79
2022/01/14 05:25:23;;;;;;;39.03;23.20;;;;;;;3.03;100.00;100709.97;5014609;28;20048;-79
2022/01/14 05:27:49;;;;;;;39.55;23.33;;;;;;;2.92;100.00;100706.56;4996490;28;20117;-79
2022/01/14 05:30:15;;;;;;;36.95;22.33;;;;;;;2.96;100.00;100713.44;5014328;28;20493;-79
2022/01/14 05:32:50;;;;;;;40.42;25.17;;;;;;;2.92;100.00;100711.69;5014452;28;20033;-79
2022/01/14 05:35:18;;;;;;;37.15;21.88;;;;;;;2.95;100.00;100714.25;5014487;28;20441;-79
2022/01/14 05:37:44;;;;;;;40.00;22.88;;;;;;;2.89;100.00;100699.69;5014181;28;20462;-79
2022/01/14 05:40:10;;;;;;;36.20;21.55;;;;;;;2.91;100.00;100702.28;5014371;28;20113;-80
2022/01/14 05:42:36;;;;;;;36.95;22.90;;;;;;;2.85;100.00;100682.50;5014187;28;20076;-79
2022/01/14 05:45:06;;;;;;;38.88;23.58;;;;;;;2.92;100.00;100693.69;5014031;28;20034;-79
2022/01/14 05:47:32;;;;;;;39.08;22.50;;;;;;;2.86;100.00;100671.34;5013649;28;20468;-79
2022/01/14 05:49:59;;;;;;;36.90;21.67;;;;;;;2.89;100.00;100673.94;5033593;28;20376;-80
2022/01/14 05:52:24;;;;;;;38.92;22.48;;;;;;;2.90;100.00;100673.09;5033895;28;20075;-79
2022/01/14 05:54:53;;;;;;;37.45;21.33;;;;;;;2.90;100.00;100665.34;5015786;28;20025;-79
2022/01/14 05:57:20;;;;;;;39.58;23.73;;;;;;;2.87;100.00;100652.50;5033711;28;20025;-77
2022/01/14 05:59:46;;;;;;;40.63;23.20;;;;;;;3.01;100.00;100662.81;5015622;28;20369;-77
2022/01/14 06:02:14;;;;;;;37.58;23.08;;;;;;;3.03;100.00;100657.66;5033386;28;20546;-77
2022/01/14 06:04:40;;;;;;;37.00;22.98;;;;;;;3.02;100.00;100658.50;5033459;28;20109;-77
2022/01/14 06:07:05;;;;;;;39.90;22.67;;;;;;;2.95;100.00;100648.22;5033539;28;20104;-77
2022/01/14 06:09:31;;;;;;;36.55;21.40;;;;;;;3.02;100.00;100656.78;5033468;28;20052;-77
2022/01/14 06:11:56;;;;;;;32.78;21.45;;;;;;;2.93;100.00;100647.34;5033185;28;20032;-77
2022/01/14 06:14:22;;;;;;;40.17;22.73;;;;;;;2.99;100.00;100649.94;5015578;28;20120;-77
2022/01/14 06:16:47;;;;;;;40.15;24.45;;;;;;;2.93;100.00;100643.94;5015539;28;20377;-77
2022/01/14 06:19:13;;;;;;;39.13;23.25;;;;;;;2.92;100.00;100642.22;5033151;28;20492;-77
2022/01/14 06:21:38;;;;;;;38.53;22.15;;;;;;;2.99;100.00;100644.81;5033388;28;20033;-77
2022/01/14 06:24:04;;;;;;;37.22;22.85;;;;;;;2.99;100.00;100655.09;5015373;28;20029;-77
2022/01/14 06:26:29;;;;;;;42.80;23.98;;;;;;;3.02;100.00;100655.94;5033262;28;20033;-77
2022/01/14 06:28:55;;;;;;;36.80;24.52;;;;;;;2.96;100.00;100638.78;5032704;28;20060;-79
2022/01/14 06:31:20;;;;;;;38.58;22.15;;;;;;;3.05;100.00;100658.53;5010714;28;20030;-78
2022/01/14 06:33:46;;;;;;;36.33;21.67;;;;;;;3.04;100.00;100652.53;5010529;28;20107;-79
2022/01/14 06:36:12;;;;;;;43.80;23.42;;;;;;;3.00;100.00;100640.50;4994322;28;20038;-79
2022/01/14 06:38:39;;;;;;;36.40;22.15;;;;;;;3.09;100.00;100647.38;5010708;28;20033;-79
2022/01/14 06:41:04;;;;;;;42.95;23.88;;;;;;;3.06;100.00;100639.66;5010500;28;20038;-79
2022/01/14 06:43:30;;;;;;;38.28;22.73;;;;;;;3.06;100.00;100639.66;5010582;28;20030;-79
2022/01/14 06:45:55;;;;;;;38.55;22.83;;;;;;;2.90;100.00;100613.91;5010340;28;20038;-79
2022/01/14 06:48:21;;;;;;;38.67;23.05;;;;;;;3.06;100.00;100647.38;4993893;28;20048;-79
2022/01/14 06:50:46;;;;;;;36.08;23.30;;;;;;;3.06;100.00;100644.78;5010745;28;20070;-79
2022/01/14 06:53:13;;;;;;;36.30;22.38;;;;;;;3.06;100.00;100650.78;4994148;28;20033;-79
2022/01/14 06:55:38;;;;;;;38.50;21.35;;;;;;;3.02;100.00;100648.22;5010527;28;20449;-79
2022/01/14 06:58:04;;;;;;;42.00;22.30;;;;;;;3.02;100.00;100646.50;5010411;28;20053;-79
2022/01/14 07:00:30;;;;;;;38.28;21.38;;;;;;;2.92;100.00;100643.06;4993227;28;20399;-79
2022/01/14 07:02:55;;;;;;;39.13;23.83;;;;;;;2.97;100.00;100637.94;5009110;28;20381;-79
2022/01/14 07:05:20;;;;;;;37.92;22.83;;;;;;;2.99;100.00;100642.22;5032607;28;20029;-79
2022/01/14 07:07:46;;;;;;;37.95;23.27;;;;;;;2.94;100.00;100636.19;5014529;28;20420;-79
2022/01/14 07:10:11;;;;;;;38.13;23.88;;;;;;;3.05;100.00;100643.09;5014811;28;20021;-78
2022/01/14 07:12:43;;;;;;;38.03;22.85;;;;;;;2.99;100.00;100620.75;5032385;28;20072;-79
2022/01/14 07:15:10;;;;;;;38.85;22.17;;;;;;;3.01;100.00;100629.34;5032551;28;20031;-79
2022/01/14 07:17:37;;;;;;;36.35;20.95;;;;;;;2.99;100.00;100616.50;5032378;28;20377;-79
2022/01/14 07:20:10;;;;;;;39.45;22.13;;;;;;;3.04;100.00;100624.22;5032154;28;20535;-79
2022/01/14 07:22:35;;;;;;;34.03;21.08;;;;;;;3.03;100.00;100614.75;5014510;28;20075;-79
2022/01/14 07:25:01;;;;;;;32.50;20.15;;;;;;;3.01;100.00;100621.63;5031867;28;20424;-79
2022/01/14 07:27:27;;;;;;;34.05;21.98;;;;;;;3.04;100.00;100626.78;5031963;28;20036;-79
2022/01/14 07:29:53;;;;;;;37.60;22.30;;;;;;;2.98;100.00;100601.03;5031924;28;20029;-79
2022/01/14 07:32:18;;;;;;;31.92;20.02;;;;;;;2.98;100.00;100614.75;5032014;28;20456;-79
2022/01/14 07:34:45;;;;;;;43.60;22.02;;;;;;;3.07;100.00;100615.63;5014127;28;20125;-79
2022/01/14 07:37:11;;;;;;;33.20;19.92;;;;;;;3.06;100.00;100609.63;5032058;28;20429;-79
2022/01/14 07:39:36;;;;;;;35.90;20.35;;;;;;;3.06;100.00;100611.34;5014155;28;20030;-79
2022/01/14 07:42:02;;;;;;;35.40;21.60;;;;;;;3.06;100.00;100607.03;5031627;28;20026;-79
2022/01/14 07:44:27;;;;;;;36.47;21.77;;;;;;;3.06;100.00;100601.91;5014098;28;20053;-79
2022/01/14 07:46:53;;;;;;;37.25;22.25;;;;;;;3.08;100.00;100586.47;5031927;28;20108;-79
2022/01/14 07:49:18;;;;;;;35.00;21.63;;;;;;;2.98;100.00;100560.72;5017334;28;20041;-79
2022/01/14 07:51:44;;;;;;;36.03;22.33;;;;;;;3.09;100.00;100575.31;5012234;28;20117;-79
2022/01/14 07:54:09;;;;;;;30.50;19.70;;;;;;;3.12;100.00;100583.00;5011990;28;20026;-79
2022/01/14 07:56:45;;;;;;;37.42;21.02;;;;;;;3.06;100.00;100571.00;5012334;28;20030;-79
2022/01/14 07:59:15;;;;;;;36.38;22.00;;;;;;;3.11;100.00;100578.72;4994523;28;20489;-79
2022/01/14 08:01:43;;;;;;;31.60;19.48;;;;;;;2.97;100.00;100553.84;4994631;28;20476;-79
2022/01/14 08:04:08;;;;;;;31.02;19.33;;;;;;;3.13;100.00;100570.16;4994270;28;20025;-79
2022/01/14 08:06:38;;;;;;;28.80;18.58;;;;;;;3.14;100.00;100577.00;5012004;28;20074;-79
2022/01/14 08:09:03;;;;;;;30.75;19.50;;;;;;;2.99;100.00;100548.69;4993832;28;20057;-79
2022/01/14 08:11:29;;;;;;;29.25;18.15;;;;;;;3.10;100.00;100557.28;4996652;28;20121;-79
2022/01/14 08:13:54;;;;;;;30.25;18.80;;;;;;;3.17;100.00;100559.00;4998136;28;20037;-79
2022/01/14 08:16:20;;;;;;;33.67;20.90;;;;;;;3.13;100.00;100546.97;4998112;28;20033;-79
2022/01/14 08:18:45;;;;;;;31.80;20.27;;;;;;;3.25;100.00;100553.81;4998094;28;20116;-79
2022/01/14 08:21:10;;;;;;;29.60;18.83;;;;;;;3.14;100.00;100528.09;5015909;28;20041;-79
2022/01/14 08:23:36;;;;;;;32.20;19.00;;;;;;;3.31;100.00;100546.06;5015677;28;20413;-79
2022/01/14 08:26:02;;;;;;;29.33;19.15;;;;;;;3.30;100.00;100554.66;5015420;28;20492;-79
2022/01/14 08:28:27;;;;;;;32.28;20.92;;;;;;;3.21;100.00;100529.81;4998006;28;20022;-79
2022/01/14 08:30:53;;;;;;;41.75;28.65;;;;;;;3.28;100.00;100524.63;5015323;28;20037;-80
2022/01/14 08:33:19;;;;;;;33.13;22.83;;;;;;;3.27;100.00;100510.03;4997919;28;20022;-79
2022/01/14 08:35:46;;;;;;;35.83;25.30;;;;;;;3.27;100.00;100510.03;5015454;28;20045;-79
2022/01/14 08:38:12;;;;;;;30.83;21.27;;;;;;;3.31;100.00;100510.03;4997149;28;20021;-79
2022/01/14 08:40:38;;;;;;;31.70;22.02;;;;;;;3.37;100.00;100511.72;5015798;28;20025;-79
2022/01/14 08:43:04;;;;;;;33.65;21.58;;;;;;;3.41;100.00;100527.19;4997613;28;20022;-79
2022/01/14 08:45:29;;;;;;;30.10;20.90;;;;;;;3.44;100.00;100531.44;5015435;28;20084;-80
2022/01/14 08:47:55;;;;;;;27.92;17.92;;;;;;;3.42;100.00;100534.03;5016873;28;20035;-79
2022/01/14 08:50:22;;;;;;;28.23;18.67;;;;;;;3.45;100.00;100538.31;4997588;28;20401;-79
2022/01/14 08:52:48;;;;;;;28.75;18.95;;;;;;;3.36;100.00;100516.00;5014864;28;20045;-79
2022/01/14 08:55:15;;;;;;;33.83;20.80;;;;;;;3.45;100.00;100535.72;4997793;28;20022;-79
2022/01/14 08:57:44;;;;;;;34.17;18.88;;;;;;;3.50;100.00;100537.44;5015252;28;20030;-79
2022/01/14 09:00:12;;;;;;;34.35;19.88;;;;;;;3.48;100.00;100546.03;4997132;28;20022;-79
2022/01/14 09:02:37;;;;;;;28.08;17.85;;;;;;;3.49;100.00;100546.00;5015041;28;20083;-80
2022/01/14 09:05:03;;;;;;;34.22;19.80;;;;;;;3.51;100.00;100548.59;5014745;28;20034;-79
2022/01/14 09:07:29;;;;;;;30.67;18.58;;;;;;;3.51;100.00;100553.75;5014998;28;20030;-79
2022/01/14 09:09:55;;;;;;;24.25;16.20;;;;;;;3.53;100.00;100552.00;5014787;28;20547;-79
2022/01/14 09:12:21;;;;;;;27.65;17.85;;;;;;;3.50;100.00;100544.31;4997343;28;20033;-79
2022/01/14 09:14:46;;;;;;;28.75;17.60;;;;;;;3.50;100.00;100534.88;4997206;28;20025;-80
2022/01/14 09:17:13;;;;;;;25.20;17.35;;;;;;;3.59;100.00;100540.84;4996974;28;20510;-79
2022/01/14 09:19:39;;;;;;;25.45;16.23;;;;;;;3.54;100.00;100535.72;5014739;28;20041;-79
2022/01/14 09:22:05;;;;;;;23.20;14.93;;;;;;;3.61;100.00;100558.00;4996208;28;20052;-79
2022/01/14 09:24:30;;;;;;;29.35;18.40;;;;;;;3.61;100.00;100559.72;4997026;28;20383;-79
2022/01/14 09:26:55;;;;;;;28.90;16.92;;;;;;;3.50;100.00;100550.31;5014535;28;20121;-79
2022/01/14 09:29:21;;;;;;;25.23;17.40;;;;;;;3.58;100.00;100558.03;5014361;28;20489;-79
2022/01/14 09:31:46;;;;;;;30.05;18.42;;;;;;;3.57;100.00;100558.88;5014515;28;20104;-79
2022/01/14 09:34:12;;;;;;;39.97;24.27;;;;;;;3.61;100.00;100567.44;4996521;28;20022;-79
2022/01/14 09:36:37;;;;;;;34.63;21.00;;;;;;;3.62;100.00;100557.13;5014346;28;20029;-79
2022/01/14 09:39:03;;;;;;;26.77;17.02;;;;;;;3.57;100.00;100543.41;5014148;28;20034;-79
2022/01/14 09:41:29;;;;;;;28.27;17.15;;;;;;;3.66;100.00;100563.13;5014282;28;20631;-80
2022/01/14 09:43:55;;;;;;;29.42;19.52;;;;;;;3.56;100.00;100546.84;5013980;28;20037;-78
2022/01/14 09:46:21;;;;;;;31.48;21.45;;;;;;;3.58;100.00;100545.16;5014311;28;20034;-79
2022/01/14 09:48:49;;;;;;;30.70;20.15;;;;;;;3.60;100.00;100545.13;5013783;28;20493;-79
2022/01/14 09:51:15;;;;;;;31.90;19.13;;;;;;;3.58;100.00;100547.72;4996323;28;20026;-79
2022/01/14 09:53:41;;;;;;;31.30;21.02;;;;;;;3.68;100.00;100556.25;4996652;28;20480;-79
2022/01/14 09:56:06;;;;;;;22.95;17.85;;;;;;;3.65;100.00;100544.25;4996333;28;20038;-79
2022/01/14 09:58:36;;;;;;;24.58;16.17;;;;;;;3.71;100.00;100558.84;5014086;28;20030;-79
2022/01/14 10:01:14;;;;;;;27.25;17.08;;;;;;;3.60;100.00;100525.38;4996087;28;20038;-79
2022/01/14 10:04:00;;;;;;;30.02;18.67;;;;;;;3.71;100.00;100548.53;4996159;28;20462;-79
2022/01/14 10:06:38;;;;;;;25.88;17.98;;;;;;;3.69;100.00;100553.66;5013981;28;20083;-79
2022/01/14 10:09:08;;;;;;;31.75;18.08;;;;;;;3.71;100.00;100541.66;4995956;28;20030;-79
2022/01/14 10:11:35;;;;;;;27.48;17.42;;;;;;;3.70;100.00;100545.06;5013769;28;20041;-79
2022/01/14 10:14:10;;;;;;;28.52;18.27;;;;;;;3.60;100.00;100509.06;5010349;28;20183;-79
2022/01/14 10:16:41;;;;;;;38.08;20.52;;;;;;;3.75;100.00;100537.34;5013743;28;20036;-79
2022/01/14 10:19:28;;;;;;;33.58;21.73;;;;;;;3.73;100.00;100531.34;5013581;28;20030;-79
2022/01/14 10:21:58;;;;;;;35.13;20.70;;;;;;;3.72;100.00;100534.78;4979791;28;20599;-79
2022/01/14 10:24:26;;;;;;;32.53;19.15;;;;;;;3.76;100.00;100551.94;4995942;28;20030;-79
2022/01/14 10:26:59;;;;;;;35.38;21.55;;;;;;;3.66;100.00;100540.78;5013622;28;20129;-79
2022/01/14 10:29:29;;;;;;;35.25;22.40;;;;;;;3.70;100.00;100528.75;4991065;28;20122;-79
2022/01/14 10:31:56;;;;;;;32.75;19.90;;;;;;;3.49;100.00;100491.06;4991064;28;20371;-79
2022/01/14 10:34:21;;;;;;;31.85;19.30;;;;;;;3.65;100.00;100533.94;4990254;28;20038;-79
2022/01/14 10:36:48;;;;;;;35.25;22.90;;;;;;;3.73;100.00;100529.59;4991167;28;20462;-79
2022/01/14 10:39:25;;;;;;;33.38;21.00;;;;;;;3.63;100.00;100519.38;4974596;28;20378;-79
2022/01/14 10:41:52;;;;;;;33.67;21.65;;;;;;;3.65;100.00;100527.94;4991091;28;20474;-79
2022/01/14 10:44:32;;;;;;;34.13;21.27;;;;;;;3.69;100.00;100530.47;4990760;28;20037;-79
2022/01/14 10:47:11;;;;;;;34.75;23.90;;;;;;;3.70;100.00;100516.72;4990943;28;20046;-79
2022/01/14 10:49:40;;;;;;;42.92;24.00;;;;;;;3.71;100.00;100523.63;4971106;28;20090;-79
2022/01/14 10:52:20;;;;;;;42.67;23.77;;;;;;;3.73;100.00;100519.31;4955072;28;20155;-79
2022/01/14 10:54:56;;;;;;;40.50;24.92;;;;;;;3.67;100.00;100511.63;4971506;28;20090;-79
2022/01/14 10:57:27;;;;;;;33.45;20.20;;;;;;;3.66;100.00;100509.03;4971362;28;20031;-79
2022/01/14 11:00:12;;;;;;;36.55;23.30;;;;;;;3.62;100.00;100507.31;4960454;28;20462;-80
2022/01/14 11:02:42;;;;;;;34.75;22.08;;;;;;;3.56;100.00;100499.63;4990765;28;20049;-79
2022/01/14 11:05:22;;;;;;;38.72;23.23;;;;;;;3.67;100.00;100503.88;4951550;29;20043;-79
2022/01/14 11:07:50;;;;;;;34.97;22.27;;;;;;;3.70;100.00;100505.56;4951999;29;20031;-79
2022/01/14 11:10:26;;;;;;;35.33;22.50;;;;;;;3.57;100.00;100481.59;4951559;29;20126;-79
2022/01/14 11:12:55;;;;;;;33.33;21.42;;;;;;;3.68;100.00;100489.28;4952068;29;20027;-79
2022/01/14 11:15:23;;;;;;;32.85;21.42;;;;;;;3.71;100.00;100490.13;4951987;29;20083;-79
2022/01/14 11:17:51;;;;;;;45.28;24.40;;;;;;;3.66;100.00;100468.66;4936061;29;20046;-79
2022/01/14 11:20:29;;;;;;;38.45;21.90;;;;;;;3.71;100.00;100472.09;4958895;28;20509;-79
2022/01/14 11:25:44;;;;;;;34.60;21.20;;;;;;;3.56;100.00;100456.72;4952342;29;20115;-79
2022/01/14 11:28:11;;;;;;;35.33;20.95;;;;;;;3.64;100.00;100465.25;4951521;29;20066;-79
2022/01/14 11:30:39;;;;;;;32.85;20.13;;;;;;;3.64;100.00;100470.41;4951495;29;20078;-79
2022/01/14 11:33:11;;;;;;;36.67;22.20;;;;;;;3.53;100.00;100453.28;4951316;29;20115;-79
2022/01/14 11:35:37;;;;;;;41.47;26.65;;;;;;;3.43;100.00;100437.03;4957086;28;20078;-79
2022/01/14 11:38:24;;;;;;;35.58;22.98;;;;;;;3.60;100.00;100481.59;4970688;28;20049;-79
2022/01/14 11:40:51;;;;;;;32.17;21.98;;;;;;;3.59;100.00;100473.88;4954700;28;20503;-79
2022/01/14 11:43:46;;;;;;;36.90;22.30;;;;;;;3.60;100.00;100465.28;4970726;28;20407;-79
2022/01/14 11:46:16;;;;;;;33.17;20.20;;;;;;;3.58;100.00;100473.03;4954123;28;20066;-79